Time;durP1;ratioP1;P1;durP2;ratioP2;P2;SDS_P1;SDS_P2;PMS_P1;PMS_P2;Temp;Humidity;BMP_temperature;BMP_pressure;BME280_temperature;BME280_humidity;BME280_pressure;Samples;Min_cycle;Max_cycle;Signal;HPM_P1;HPM_P2
2023/03/28 00:02:16;;;;;;;;;;;;;;;;;;137554;1274;22394;-83
2023/03/28 00:05:17;;;;;;;;;;;;;;;;;;137503;1274;22362;-83
2023/03/28 00:08:19;;;;;;;;;;;;;;;;;;137501;1274;22428;-82
2023/03/28 00:11:20;;;;;;;;;;;;;;;;;;137541;1274;22172;-82
2023/03/28 00:14:21;;;;;;;;;;;;;;;;;;137523;1274;22638;-83
2023/03/28 00:17:23;;;;;;;;;;;;;;;;;;137538;1274;22660;-82
2023/03/28 00:20:24;;;;;;;;;;;;;;;;;;137500;1274;22263;-82
2023/03/28 00:23:27;;;;;;;;;;;;;;;;;;137535;1274;22267;-83
2023/03/28 00:26:29;;;;;;;;;;;;;;;;;;137493;1274;22276;-83
2023/03/28 00:29:30;;;;;;;;;;;;;;;;;;137514;1274;22758;-83
2023/03/28 00:32:31;;;;;;;;;;;;;;;;;;137540;1274;22349;-82
2023/03/28 00:35:32;;;;;;;;;;;;;;;;;;137532;1274;22280;-83
2023/03/28 00:38:33;;;;;;;;;;;;;;;;;;137539;1274;22341;-83
2023/03/28 00:41:34;;;;;;;;;;;;;;;;;;137523;1274;22173;-83
2023/03/28 00:44:35;;;;;;;;;;;;;;;;;;137536;1274;22238;-83
2023/03/28 00:47:36;;;;;;;;;;;;;;;;;;137519;1274;22291;-82
2023/03/28 00:50:37;;;;;;;;;;;;;;;;;;137557;1274;22216;-83
2023/03/28 00:53:41;;;;;;;;;;;;;;;;;;137481;1274;22279;-83
2023/03/28 00:56:42;;;;;;;;;;;;;;;;;;137528;1274;22334;-83
2023/03/28 00:59:43;;;;;;;;;;;;;;;;;;137549;1274;22316;-82
2023/03/28 01:02:44;;;;;;;;;;;;;;;;;;137602;1274;22334;-84
2023/03/28 01:05:46;;;;;;;;;;;;;;;;;;137619;1274;22267;-85
2023/03/28 01:08:47;;;;;;;;;;;;;;;;;;137561;1274;22460;-84
2023/03/28 01:11:48;;;;;;;;;;;;;;;;;;137561;1274;22791;-85
2023/03/28 01:14:50;;;;;;;;;;;;;;;;;;137519;1274;22240;-85
2023/03/28 01:17:51;;;;;;;;;;;;;;;;;;137545;1274;22271;-85
2023/03/28 01:20:52;;;;;;;;;;;;;;;;;;137588;1274;22311;-86
2023/03/28 01:23:53;;;;;;;;;;;;;;;;;;137568;1274;22299;-85
2023/03/28 01:26:54;;;;;;;;;;;;;;;;;;137567;1274;22278;-84
2023/03/28 01:29:59;;;;;;;;;;;;;;;;;;137517;1274;22464;-84
2023/03/28 01:33:01;;;;;;;;;;;;;;;;;;137540;1274;22201;-84
2023/03/28 01:36:02;;;;;;;;;;;;;;;;;;137517;1274;22334;-85
2023/03/28 01:39:04;;;;;;;;;;;;;;;;;;137560;1274;22370;-85
2023/03/28 01:42:05;;;;;;;;;;;;;;;;;;137524;1272;22226;-83
2023/03/28 01:45:06;;;;;;;;;;;;;;;;;;137522;1274;22201;-84
2023/03/28 01:48:07;;;;;;;;;;;;;;;;;;137566;1274;22436;-85
2023/03/28 01:51:08;;;;;;;;;;;;;;;;;;137543;1274;22180;-84
2023/03/28 01:54:09;;;;;;;;;;;;;;;;;;137555;1274;22286;-84
2023/03/28 01:57:10;;;;;;;;;;;;;;;;;;137581;1274;22186;-84
2023/03/28 02:00:12;;;;;;;;;;;;;;;;;;137620;1274;22270;-85
2023/03/28 02:03:13;;;;;;;;;;;;;;;;;;137567;1274;22290;-85
2023/03/28 02:06:15;;;;;;;;;;;;;;;;;;137567;1274;22287;-85
2023/03/28 02:09:17;;;;;;;;;;;;;;;;;;137580;1274;22369;-84
2023/03/28 02:12:18;;;;;;;;;;;;;;;;;;137547;1274;22570;-85
2023/03/28 02:15:19;;;;;;;;;;;;;;;;;;137570;1274;22771;-84
2023/03/28 02:18:20;;;;;;;;;;;;;;;;;;137568;1274;22344;-84
2023/03/28 02:21:21;;;;;;;;;;;;;;;;;;137522;1274;22253;-84
2023/03/28 02:24:22;;;;;;;;;;;;;;;;;;137582;1274;22213;-84
2023/03/28 02:27:23;;;;;;;;;;;;;;;;;;137603;1274;22192;-81
2023/03/28 02:30:26;;;;;;;;;;;;;;;;;;137564;1274;22579;-85
2023/03/28 02:33:27;;;;;;;;;;;;;;;;;;137535;1274;22653;-85
2023/03/28 02:36:28;;;;;;;;;;;;;;;;;;137577;1274;22270;-85
2023/03/28 02:39:29;;;;;;;;;;;;;;;;;;137573;1274;22833;-85
2023/03/28 02:42:30;;;;;;;;;;;;;;;;;;137561;1274;22570;-85
2023/03/28 02:45:32;;;;;;;;;;;;;;;;;;137559;1274;22596;-84
2023/03/28 02:48:33;;;;;;;;;;;;;;;;;;137513;1272;22691;-85
2023/03/28 02:51:34;;;;;;;;;;;;;;;;;;137549;1274;22275;-84
2023/03/28 02:54:35;;;;;;;;;;;;;;;;;;137515;1274;22951;-85
2023/03/28 02:57:37;;;;;;;;;;;;;;;;;;137534;1274;22401;-86
2023/03/28 03:00:40;;;;;;;;;;;;;;;;;;137523;1274;22265;-85
2023/03/28 03:03:43;;;;;;;;;;;;;;;;;;137332;1261;22380;-86
2023/03/28 03:06:49;;;;;;;;;;;;;;;;;;137532;1274;22757;-85
2023/03/28 03:09:54;;;;;;;;;;;;;;;;;;137494;1274;22844;-86
2023/03/28 03:12:56;;;;;;;;;;;;;;;;;;137563;1274;22399;-86
2023/03/28 03:15:58;;;;;;;;;;;;;;;;;;137528;1274;22279;-85
2023/03/28 03:19:00;;;;;;;;;;;;;;;;;;137599;1272;22264;-87
2023/03/28 03:29:19;;;;;;;;;;;;;;;;;;133517;1305;547538;-82
2023/03/28 03:32:24;;;;;;;;;;;;;;;;;;136550;1274;22564;-85
2023/03/28 03:35:32;;;;;;;;;;;;;;;;;;137074;1274;22682;-85
2023/03/28 03:38:36;;;;;;;;;;;;;;;;;;136833;1272;23095;-84
2023/03/28 03:41:38;;;;;;;;;;;;;;;;;;136445;1272;199894;-85
2023/03/28 03:44:39;;;;;;;;;;;;;;;;;;137214;1272;22542;-85
2023/03/28 03:47:41;;;;;;;;;;;;;;;;;;136961;1272;22508;-85
2023/03/28 03:50:42;;;;;;;;;;;;;;;;;;137046;1268;22526;-85
2023/03/28 03:53:43;;;;;;;;;;;;;;;;;;137627;1272;22969;-86
2023/03/28 03:56:45;;;;;;;;;;;;;;;;;;137251;1272;22505;-86
2023/03/28 03:59:46;;;;;;;;;;;;;;;;;;137214;1272;22489;-85
2023/03/28 04:02:47;;;;;;;;;;;;;;;;;;137631;1272;22926;-86
2023/03/28 04:05:49;;;;;;;;;;;;;;;;;;137357;1272;22478;-86
2023/03/28 04:08:51;;;;;;;;;;;;;;;;;;136797;1268;22523;-85
2023/03/28 04:11:52;;;;;;;;;;;;;;;;;;137327;1272;22618;-84
2023/03/28 04:14:53;;;;;;;;;;;;;;;;;;137541;1272;22504;-83
2023/03/28 04:17:57;;;;;;;;;;;;;;;;;;137343;1272;23302;-84
2023/03/28 04:21:00;;;;;;;;;;;;;;;;;;137234;1272;22533;-83
2023/03/28 04:57:03;;;;;;;;;;;;;;;;;;132862;1311;544551;-83
2023/03/28 05:00:09;;;;;;;;;;;;;;;;;;135966;1286;22510;-83
2023/03/28 05:03:10;;;;;;;;;;;;;;;;;;136544;1282;22595;-81
2023/03/28 05:06:11;;;;;;;;;;;;;;;;;;137486;1274;22340;-83
2023/03/28 05:09:13;;;;;;;;;;;;;;;;;;137368;1272;162278;-84
2023/03/28 05:12:14;;;;;;;;;;;;;;;;;;137561;1272;22481;-82
2023/03/28 05:15:15;;;;;;;;;;;;;;;;;;137667;1272;22293;-81
2023/03/28 05:18:16;;;;;;;;;;;;;;;;;;137687;1272;22312;-82
2023/03/28 05:21:18;;;;;;;;;;;;;;;;;;137761;1272;22278;-81
2023/03/28 05:24:19;;;;;;;;;;;;;;;;;;137681;1269;22397;-82
2023/03/28 05:27:20;;;;;;;;;;;;;;;;;;137750;1264;22318;-83
2023/03/28 05:30:21;;;;;;;;;;;;;;;;;;137705;1272;22399;-82
2023/03/28 05:33:22;;;;;;;;;;;;;;;;;;137746;1272;22913;-82
2023/03/28 05:36:23;;;;;;;;;;;;;;;;;;137721;1272;22354;-82
2023/03/28 05:39:25;;;;;;;;;;;;;;;;;;137404;1272;22495;-83
2023/03/28 05:42:26;;;;;;;;;;;;;;;;;;137635;1272;22494;-81
2023/03/28 05:45:27;;;;;;;;;;;;;;;;;;137677;1272;22320;-81
2023/03/28 05:48:28;;;;;;;;;;;;;;;;;;137728;1272;22372;-82
2023/03/28 05:51:32;;;;;;;;;;;;;;;;;;137764;1267;22281;-84
2023/03/28 05:54:33;;;;;;;;;;;;;;;;;;137729;1272;22431;-82
2023/03/28 05:57:36;;;;;;;;;;;;;;;;;;137728;1271;22328;-82
2023/03/28 06:00:37;;;;;;;;;;;;;;;;;;137744;1272;22384;-82
2023/03/28 06:03:38;;;;;;;;;;;;;;;;;;137739;1272;22521;-82
2023/03/28 06:06:40;;;;;;;;;;;;;;;;;;137736;1272;22278;-82
2023/03/28 06:09:41;;;;;;;;;;;;;;;;;;137739;1272;22320;-80
2023/03/28 06:12:46;;;;;;;;;;;;;;;;;;137751;1272;22310;-80
2023/03/28 06:15:49;;;;;;;;;;;;;;;;;;137714;1272;22293;-83
2023/03/28 06:18:51;;;;;;;;;;;;;;;;;;137747;1272;22340;-79
2023/03/28 06:21:52;;;;;;;;;;;;;;;;;;137726;1272;22257;-84
2023/03/28 06:24:53;;;;;;;;;;;;;;;;;;137521;1272;23308;-81
2023/03/28 06:27:54;;;;;;;;;;;;;;;;;;137670;1272;22801;-84
2023/03/28 06:30:57;;;;;;;;;;;;;;;;;;137679;1272;22282;-83
2023/03/28 06:33:58;;;;;;;;;;;;;;;;;;137295;1272;22879;-82
2023/03/28 06:37:00;;;;;;;;;;;;;;;;;;137299;1272;22486;-81
2023/03/28 06:40:04;;;;;;;;;;;;;;;;;;137706;1272;22291;-82
2023/03/28 06:43:05;;;;;;;;;;;;;;;;;;137690;1256;22296;-82
2023/03/28 06:46:06;;;;;;;;;;;;;;;;;;137468;1272;22501;-82
2023/03/28 06:49:07;;;;;;;;;;;;;;;;;;137658;1272;22344;-82
2023/03/28 06:52:08;;;;;;;;;;;;;;;;;;137680;1272;22335;-82
2023/03/28 06:55:09;;;;;;;;;;;;;;;;;;137673;1272;22401;-81
2023/03/28 06:58:10;;;;;;;;;;;;;;;;;;137684;1260;22304;-83
2023/03/28 07:01:11;;;;;;;;;;;;;;;;;;137669;1272;22340;-83
2023/03/28 07:04:13;;;;;;;;;;;;;;;;;;137574;1272;22505;-79
2023/03/28 07:07:14;;;;;;;;;;;;;;;;;;137666;1272;22385;-79
2023/03/28 07:10:15;;;;;;;;;;;;;;;;;;137681;1272;22333;-82
2023/03/28 07:13:16;;;;;;;;;;;;;;;;;;137664;1272;22312;-83
2023/03/28 07:16:17;;;;;;;;;;;;;;;;;;137671;1272;22332;-82
2023/03/28 07:19:18;;;;;;;;;;;;;;;;;;137643;1272;22286;-82
2023/03/28 07:22:19;;;;;;;;;;;;;;;;;;137667;1272;22350;-81
2023/03/28 07:25:20;;;;;;;;;;;;;;;;;;137633;1270;22570;-83
2023/03/28 07:28:23;;;;;;;;;;;;;;;;;;137325;1272;22528;-82
2023/03/28 07:31:24;;;;;;;;;;;;;;;;;;137692;1272;22345;-81
2023/03/28 07:34:25;;;;;;;;;;;;;;;;;;137673;1272;22355;-82
2023/03/28 07:37:26;;;;;;;;;;;;;;;;;;137700;1272;22262;-84
2023/03/28 07:40:27;;;;;;;;;;;;;;;;;;137493;1272;22464;-84
2023/03/28 07:43:28;;;;;;;;;;;;;;;;;;137667;1272;22953;-82
2023/03/28 07:46:31;;;;;;;;;;;;;;;;;;136918;1272;22540;-83
2023/03/28 07:49:32;;;;;;;;;;;;;;;;;;136740;1272;25219;-83
2023/03/28 07:52:33;;;;;;;;;;;;;;;;;;137204;1272;22488;-83
2023/03/28 07:55:35;;;;;;;;;;;;;;;;;;137256;1272;22493;-82
2023/03/28 07:58:36;;;;;;;;;;;;;;;;;;137717;1272;22328;-83
2023/03/28 08:01:37;;;;;;;;;;;;;;;;;;137664;1272;22334;-81
2023/03/28 08:04:38;;;;;;;;;;;;;;;;;;137701;1272;22322;-81
2023/03/28 08:07:40;;;;;;;;;;;;;;;;;;137650;1272;22295;-81
2023/03/28 08:10:44;;;;;;;;;;;;;;;;;;137573;1272;22549;-81
2023/03/28 08:13:45;;;;;;;;;;;;;;;;;;137232;1272;22482;-79
2023/03/28 08:16:46;;;;;;;;;;;;;;;;;;137682;1272;22400;-82
2023/03/28 08:19:47;;;;;;;;;;;;;;;;;;137681;1272;22327;-81
2023/03/28 08:22:48;;;;;;;;;;;;;;;;;;137690;1272;22319;-80
2023/03/28 08:25:50;;;;;;;;;;;;;;;;;;137425;1272;22517;-79
2023/03/28 08:28:53;;;;;;;;;;;;;;;;;;137676;1272;22346;-79
2023/03/28 08:31:55;;;;;;;;;;;;;;;;;;137667;1272;22380;-80
2023/03/28 08:34:57;;;;;;;;;;;;;;;;;;137694;1272;22765;-78
2023/03/28 08:37:58;;;;;;;;;;;;;;;;;;137499;1272;22551;-80
2023/03/28 08:40:59;;;;;;;;;;;;;;;;;;137500;1272;22476;-79
2023/03/28 08:44:00;;;;;;;;;;;;;;;;;;137653;1272;22786;-80
2023/03/28 08:47:01;;;;;;;;;;;;;;;;;;137666;1272;22833;-80
2023/03/28 08:50:02;;;;;;;;;;;;;;;;;;137715;1272;22370;-81
2023/03/28 08:53:03;;;;;;;;;;;;;;;;;;137702;1272;22321;-80
2023/03/28 08:56:05;;;;;;;;;;;;;;;;;;137548;1272;22534;-78
2023/03/28 08:59:06;;;;;;;;;;;;;;;;;;136938;1272;24295;-79
2023/03/28 09:02:07;;;;;;;;;;;;;;;;;;137621;1272;22548;-80
2023/03/28 09:05:08;;;;;;;;;;;;;;;;;;136933;1272;22502;-81
2023/03/28 09:08:09;;;;;;;;;;;;;;;;;;137540;1272;22561;-79
2023/03/28 09:11:10;;;;;;;;;;;;;;;;;;137708;1272;22356;-81
2023/03/28 09:14:11;;;;;;;;;;;;;;;;;;137492;1272;22515;-79
2023/03/28 09:17:12;;;;;;;;;;;;;;;;;;137683;1272;22325;-82
2023/03/28 09:20:13;;;;;;;;;;;;;;;;;;137695;1272;22372;-83
2023/03/28 09:23:15;;;;;;;;;;;;;;;;;;137703;1272;22325;-82
2023/03/28 09:26:16;;;;;;;;;;;;;;;;;;137462;1272;22552;-80
2023/03/28 09:29:17;;;;;;;;;;;;;;;;;;137701;1272;22366;-81
2023/03/28 09:32:18;;;;;;;;;;;;;;;;;;137580;1272;22498;-82
2023/03/28 09:35:20;;;;;;;;;;;;;;;;;;137699;1272;22336;-79
2023/03/28 09:38:21;;;;;;;;;;;;;;;;;;137317;1272;25309;-81
2023/03/28 09:41:22;;;;;;;;;;;;;;;;;;137659;1267;22481;-82
2023/03/28 09:44:25;;;;;;;;;;;;;;;;;;136967;1272;22568;-82
2023/03/28 09:47:28;;;;;;;;;;;;;;;;;;136905;1272;22516;-83
2023/03/28 09:50:29;;;;;;;;;;;;;;;;;;136981;1272;24488;-82
2023/03/28 09:53:30;;;;;;;;;;;;;;;;;;137050;1272;22637;-82
2023/03/28 09:56:34;;;;;;;;;;;;;;;;;;137204;1272;22479;-84
2023/03/28 09:59:36;;;;;;;;;;;;;;;;;;137230;1272;22542;-83
2023/03/28 10:02:37;;;;;;;;;;;;;;;;;;137438;1272;22531;-82
2023/03/28 10:05:39;;;;;;;;;;;;;;;;;;137637;1272;22878;-80
2023/03/28 10:08:41;;;;;;;;;;;;;;;;;;137473;1272;22590;-84
2023/03/28 10:11:44;;;;;;;;;;;;;;;;;;137305;1272;22532;-82
2023/03/28 10:14:45;;;;;;;;;;;;;;;;;;137716;1272;22331;-82
2023/03/28 10:17:46;;;;;;;;;;;;;;;;;;137324;1272;22480;-84
2023/03/28 10:20:50;;;;;;;;;;;;;;;;;;137300;1266;22500;-81
2023/03/28 10:23:51;;;;;;;;;;;;;;;;;;137658;1272;22368;-81
2023/03/28 10:26:52;;;;;;;;;;;;;;;;;;137541;1272;22508;-81
2023/03/28 10:29:53;;;;;;;;;;;;;;;;;;136935;1272;22964;-78
2023/03/28 10:32:54;;;;;;;;;;;;;;;;;;137488;1272;23210;-78
2023/03/28 10:35:56;;;;;;;;;;;;;;;;;;137705;1272;22418;-78
2023/03/28 10:38:57;;;;;;;;;;;;;;;;;;137712;1266;22334;-78
2023/03/28 10:41:58;;;;;;;;;;;;;;;;;;137706;1263;22299;-78
2023/03/28 10:44:59;;;;;;;;;;;;;;;;;;137675;1272;22330;-80
2023/03/28 10:48:02;;;;;;;;;;;;;;;;;;137342;1272;22472;-80
2023/03/28 10:51:07;;;;;;;;;;;;;;;;;;137346;1272;22532;-81
2023/03/28 10:54:08;;;;;;;;;;;;;;;;;;137656;1260;22479;-81
2023/03/28 10:57:09;;;;;;;;;;;;;;;;;;136975;1272;22538;-81
2023/03/28 11:00:11;;;;;;;;;;;;;;;;;;137354;1272;24043;-82
2023/03/28 11:03:12;;;;;;;;;;;;;;;;;;137655;1272;22641;-81
2023/03/28 11:06:16;;;;;;;;;;;;;;;;;;137409;1272;22512;-82
2023/03/28 11:09:17;;;;;;;;;;;;;;;;;;137160;1272;22666;-80
2023/03/28 11:12:18;;;;;;;;;;;;;;;;;;137610;1272;22445;-81
2023/03/28 11:15:19;;;;;;;;;;;;;;;;;;137595;1272;22482;-80
2023/03/28 11:18:20;;;;;;;;;;;;;;;;;;137237;1269;22547;-81
2023/03/28 11:21:22;;;;;;;;;;;;;;;;;;137688;1272;22362;-82
2023/03/28 11:24:23;;;;;;;;;;;;;;;;;;137730;1272;22309;-81
2023/03/28 11:27:24;;;;;;;;;;;;;;;;;;137663;1272;22354;-82
2023/03/28 11:30:25;;;;;;;;;;;;;;;;;;137404;1272;22521;-82
2023/03/28 11:33:26;;;;;;;;;;;;;;;;;;137732;1272;22502;-82
2023/03/28 11:36:28;;;;;;;;;;;;;;;;;;137343;1272;22483;-81
2023/03/28 11:39:29;;;;;;;;;;;;;;;;;;137354;1266;22526;-81
2023/03/28 11:42:30;;;;;;;;;;;;;;;;;;137625;1272;22296;-79
2023/03/28 11:45:31;;;;;;;;;;;;;;;;;;137627;1272;22338;-79
2023/03/28 11:48:32;;;;;;;;;;;;;;;;;;137633;1272;22326;-83
2023/03/28 11:51:33;;;;;;;;;;;;;;;;;;137410;1272;22800;-82
2023/03/28 11:54:34;;;;;;;;;;;;;;;;;;137310;1272;22989;-83
2023/03/28 11:57:35;;;;;;;;;;;;;;;;;;137654;1272;22317;-84
2023/03/28 12:00:36;;;;;;;;;;;;;;;;;;137363;1272;22530;-82
2023/03/28 12:03:38;;;;;;;;;;;;;;;;;;137626;1272;22503;-82
2023/03/28 12:06:39;;;;;;;;;;;;;;;;;;137343;1272;22499;-81
2023/03/28 12:09:40;;;;;;;;;;;;;;;;;;137617;1257;22341;-81
2023/03/28 12:12:41;;;;;;;;;;;;;;;;;;137658;1272;22356;-82
2023/03/28 12:15:42;;;;;;;;;;;;;;;;;;137539;1272;22495;-82
2023/03/28 12:18:43;;;;;;;;;;;;;;;;;;137598;1272;22413;-83
2023/03/28 12:21:45;;;;;;;;;;;;;;;;;;137653;1272;22378;-82
2023/03/28 12:24:47;;;;;;;;;;;;;;;;;;137609;1265;22302;-82
2023/03/28 12:27:48;;;;;;;;;;;;;;;;;;137639;1272;22388;-82
2023/03/28 12:30:49;;;;;;;;;;;;;;;;;;137636;1272;22306;-82
2023/03/28 12:33:50;;;;;;;;;;;;;;;;;;137580;1272;23410;-81
2023/03/28 12:36:51;;;;;;;;;;;;;;;;;;137630;1272;22423;-83
2023/03/28 12:39:54;;;;;;;;;;;;;;;;;;137651;1272;22441;-83
2023/03/28 12:42:58;;;;;;;;;;;;;;;;;;137613;1272;22305;-84
2023/03/28 12:46:00;;;;;;;;;;;;;;;;;;137653;1272;22361;-80
2023/03/28 12:49:01;;;;;;;;;;;;;;;;;;137644;1272;22802;-80
2023/03/28 12:52:05;;;;;;;;;;;;;;;;;;137416;1272;23436;-82
2023/03/28 12:55:06;;;;;;;;;;;;;;;;;;137666;1272;22709;-82
2023/03/28 12:58:08;;;;;;;;;;;;;;;;;;137555;1266;22318;-82
2023/03/28 13:01:09;;;;;;;;;;;;;;;;;;137620;1272;22652;-82
2023/03/28 13:04:10;;;;;;;;;;;;;;;;;;137644;1272;22423;-82
2023/03/28 13:07:11;;;;;;;;;;;;;;;;;;137264;1272;22541;-80
2023/03/28 13:10:12;;;;;;;;;;;;;;;;;;137664;1272;22368;-82
2023/03/28 13:13:13;;;;;;;;;;;;;;;;;;137648;1272;22710;-81
2023/03/28 13:16:14;;;;;;;;;;;;;;;;;;137395;1272;22998;-83
2023/03/28 13:19:15;;;;;;;;;;;;;;;;;;137624;1272;23241;-82
2023/03/28 13:22:16;;;;;;;;;;;;;;;;;;137626;1272;22409;-80
2023/03/28 13:25:19;;;;;;;;;;;;;;;;;;137626;1272;22283;-80
2023/03/28 13:28:21;;;;;;;;;;;;;;;;;;137588;1272;22682;-81
2023/03/28 13:31:22;;;;;;;;;;;;;;;;;;137611;1272;22260;-81
2023/03/28 13:34:27;;;;;;;;;;;;;;;;;;137614;1272;23272;-82
2023/03/28 13:37:28;;;;;;;;;;;;;;;;;;137608;1272;23310;-82
2023/03/28 13:40:30;;;;;;;;;;;;;;;;;;137602;1272;22698;-80
2023/03/28 13:43:31;;;;;;;;;;;;;;;;;;137628;1272;22880;-82
2023/03/28 13:46:32;;;;;;;;;;;;;;;;;;137517;1272;22489;-83
2023/03/28 13:49:35;;;;;;;;;;;;;;;;;;137307;1272;22551;-81
2023/03/28 13:52:36;;;;;;;;;;;;;;;;;;137533;1272;22486;-79
2023/03/28 13:55:37;;;;;;;;;;;;;;;;;;136959;1272;22985;-83
2023/03/28 13:58:38;;;;;;;;;;;;;;;;;;136980;1272;22517;-82
2023/03/28 14:01:39;;;;;;;;;;;;;;;;;;137474;1272;22545;-81
2023/03/28 14:04:40;;;;;;;;;;;;;;;;;;136968;1272;22528;-82
2023/03/28 14:07:41;;;;;;;;;;;;;;;;;;137389;1272;22628;-81
2023/03/28 14:10:43;;;;;;;;;;;;;;;;;;137675;1272;22369;-79
2023/03/28 14:13:44;;;;;;;;;;;;;;;;;;137224;1272;22474;-81
2023/03/28 14:16:45;;;;;;;;;;;;;;;;;;137697;1272;22340;-81
2023/03/28 14:19:46;;;;;;;;;;;;;;;;;;137574;1272;22522;-81
2023/03/28 14:22:47;;;;;;;;;;;;;;;;;;137538;1272;22526;-82
2023/03/28 14:25:48;;;;;;;;;;;;;;;;;;137674;1272;22327;-81
2023/03/28 14:28:49;;;;;;;;;;;;;;;;;;137647;1272;22281;-81
2023/03/28 14:31:51;;;;;;;;;;;;;;;;;;137660;1272;22362;-83
2023/03/28 14:34:52;;;;;;;;;;;;;;;;;;137700;1272;22473;-81
2023/03/28 14:37:53;;;;;;;;;;;;;;;;;;137660;1272;22312;-81
2023/03/28 14:40:54;;;;;;;;;;;;;;;;;;137680;1272;22394;-82
2023/03/28 14:43:56;;;;;;;;;;;;;;;;;;137666;1272;22312;-82
2023/03/28 14:46:57;;;;;;;;;;;;;;;;;;137564;1272;23175;-81
2023/03/28 14:49:59;;;;;;;;;;;;;;;;;;137687;1272;22335;-83
2023/03/28 14:53:01;;;;;;;;;;;;;;;;;;137371;1263;22548;-83
2023/03/28 14:56:02;;;;;;;;;;;;;;;;;;137187;1266;22924;-83
2023/03/28 14:59:04;;;;;;;;;;;;;;;;;;137684;1272;22829;-83
2023/03/28 15:02:05;;;;;;;;;;;;;;;;;;136633;1272;22534;-82
2023/03/28 15:05:07;;;;;;;;;;;;;;;;;;136879;1272;22541;-83
2023/03/28 15:08:11;;;;;;;;;;;;;;;;;;136762;1272;22525;-83
2023/03/28 15:11:12;;;;;;;;;;;;;;;;;;137670;1272;22544;-82
2023/03/28 15:14:13;;;;;;;;;;;;;;;;;;137663;1272;22580;-81
2023/03/28 15:17:15;;;;;;;;;;;;;;;;;;137232;1272;22505;-82
2023/03/28 15:20:16;;;;;;;;;;;;;;;;;;137626;1272;22357;-82
2023/03/28 15:23:18;;;;;;;;;;;;;;;;;;137237;1272;22510;-82
2023/03/28 15:26:19;;;;;;;;;;;;;;;;;;136891;1272;22629;-82
2023/03/28 15:29:20;;;;;;;;;;;;;;;;;;137301;1272;22506;-82
2023/03/28 15:32:22;;;;;;;;;;;;;;;;;;137395;1272;22495;-83
2023/03/28 15:35:23;;;;;;;;;;;;;;;;;;137014;1272;22494;-82
2023/03/28 15:38:25;;;;;;;;;;;;;;;;;;137141;1272;22588;-85
2023/03/28 15:41:30;;;;;;;;;;;;;;;;;;137561;1272;22496;-85
2023/03/28 15:44:31;;;;;;;;;;;;;;;;;;137069;1272;22485;-83
2023/03/28 15:47:32;;;;;;;;;;;;;;;;;;137150;1272;22525;-82
2023/03/28 15:50:34;;;;;;;;;;;;;;;;;;137640;1272;22631;-83
2023/03/28 15:53:35;;;;;;;;;;;;;;;;;;137026;1272;22524;-82
2023/03/28 15:56:39;;;;;;;;;;;;;;;;;;137124;1272;22498;-83
2023/03/28 15:59:41;;;;;;;;;;;;;;;;;;137695;1272;22318;-80
2023/03/28 16:02:42;;;;;;;;;;;;;;;;;;137608;1272;22492;-82
2023/03/28 16:05:44;;;;;;;;;;;;;;;;;;137658;1272;22386;-83
2023/03/28 16:08:45;;;;;;;;;;;;;;;;;;137298;1272;25942;-83
2023/03/28 16:11:46;;;;;;;;;;;;;;;;;;137365;1272;22555;-82
2023/03/28 16:14:47;;;;;;;;;;;;;;;;;;137057;1272;22495;-82
2023/03/28 16:17:48;;;;;;;;;;;;;;;;;;137656;1272;22481;-82
2023/03/28 16:20:50;;;;;;;;;;;;;;;;;;137743;1272;22316;-82
2023/03/28 16:23:51;;;;;;;;;;;;;;;;;;137699;1272;22738;-83
2023/03/28 16:26:52;;;;;;;;;;;;;;;;;;137332;1269;24271;-83
2023/03/28 16:29:53;;;;;;;;;;;;;;;;;;137542;1272;22951;-83
2023/03/28 16:32:54;;;;;;;;;;;;;;;;;;137247;1272;22869;-83
2023/03/28 16:35:55;;;;;;;;;;;;;;;;;;137065;1272;22517;-83
2023/03/28 16:38:57;;;;;;;;;;;;;;;;;;137530;1272;22502;-82
2023/03/28 16:41:58;;;;;;;;;;;;;;;;;;137153;1272;22528;-83
2023/03/28 16:44:59;;;;;;;;;;;;;;;;;;137133;1272;22531;-83
2023/03/28 16:48:00;;;;;;;;;;;;;;;;;;137380;1272;22514;-83
2023/03/28 16:51:04;;;;;;;;;;;;;;;;;;137241;1272;22597;-83
2023/03/28 16:54:05;;;;;;;;;;;;;;;;;;137151;1272;22510;-83
2023/03/28 16:57:06;;;;;;;;;;;;;;;;;;137354;1272;22511;-82
2023/03/28 17:00:07;;;;;;;;;;;;;;;;;;137494;1272;22500;-83
2023/03/28 17:03:08;;;;;;;;;;;;;;;;;;137158;1272;22496;-83
2023/03/28 17:06:10;;;;;;;;;;;;;;;;;;137150;1272;22534;-84
2023/03/28 17:09:11;;;;;;;;;;;;;;;;;;137385;1272;170508;-85
2023/03/28 17:12:12;;;;;;;;;;;;;;;;;;137226;1272;22531;-85
2023/03/28 17:15:13;;;;;;;;;;;;;;;;;;137387;1272;22580;-83
2023/03/28 17:18:15;;;;;;;;;;;;;;;;;;137671;1272;22491;-84
2023/03/28 17:21:16;;;;;;;;;;;;;;;;;;137280;1272;22495;-84
2023/03/28 17:24:17;;;;;;;;;;;;;;;;;;137717;1269;22884;-84
2023/03/28 17:27:20;;;;;;;;;;;;;;;;;;137465;1272;22527;-84
2023/03/28 17:30:21;;;;;;;;;;;;;;;;;;137344;1272;22502;-84
2023/03/28 17:33:22;;;;;;;;;;;;;;;;;;137374;1270;22502;-86
2023/03/28 17:36:23;;;;;;;;;;;;;;;;;;137529;1272;22557;-84
2023/03/28 17:39:24;;;;;;;;;;;;;;;;;;137225;1272;22474;-83
2023/03/28 17:42:29;;;;;;;;;;;;;;;;;;136919;1272;22497;-85
2023/03/28 17:45:30;;;;;;;;;;;;;;;;;;137151;1272;22532;-85
2023/03/28 17:48:31;;;;;;;;;;;;;;;;;;137584;1272;23331;-84
2023/03/28 17:51:32;;;;;;;;;;;;;;;;;;136995;1272;22480;-84
2023/03/28 17:54:33;;;;;;;;;;;;;;;;;;137090;1272;22578;-84
2023/03/28 17:57:37;;;;;;;;;;;;;;;;;;137434;1272;22511;-85
2023/03/28 18:00:38;;;;;;;;;;;;;;;;;;136874;1272;23004;-85
2023/03/28 18:03:39;;;;;;;;;;;;;;;;;;137060;1272;22559;-86
2023/03/28 18:06:40;;;;;;;;;;;;;;;;;;137710;1272;22499;-85
2023/03/28 18:09:44;;;;;;;;;;;;;;;;;;137291;1272;22561;-85
2023/03/28 18:12:45;;;;;;;;;;;;;;;;;;136856;1272;23006;-83
2023/03/28 18:15:46;;;;;;;;;;;;;;;;;;137291;1272;22500;-85
2023/03/28 18:18:47;;;;;;;;;;;;;;;;;;137150;1272;22920;-85
2023/03/28 18:21:48;;;;;;;;;;;;;;;;;;136888;1272;22986;-85
2023/03/28 18:24:50;;;;;;;;;;;;;;;;;;137582;1272;22498;-82
2023/03/28 18:27:51;;;;;;;;;;;;;;;;;;137329;1272;22513;-83
2023/03/28 18:30:52;;;;;;;;;;;;;;;;;;137148;1272;22919;-83
2023/03/28 18:33:53;;;;;;;;;;;;;;;;;;137341;1272;22533;-83
2023/03/28 18:36:54;;;;;;;;;;;;;;;;;;137518;1272;23060;-84
2023/03/28 18:39:56;;;;;;;;;;;;;;;;;;136917;1272;22510;-84
2023/03/28 18:42:57;;;;;;;;;;;;;;;;;;137056;1272;22518;-85
2023/03/28 18:45:59;;;;;;;;;;;;;;;;;;137447;1272;22528;-83
2023/03/28 18:49:00;;;;;;;;;;;;;;;;;;137029;1272;22518;-85
2023/03/28 18:52:03;;;;;;;;;;;;;;;;;;137075;1272;22548;-85
2023/03/28 18:55:04;;;;;;;;;;;;;;;;;;137453;1272;22642;-84
2023/03/28 18:58:08;;;;;;;;;;;;;;;;;;137018;1272;22998;-85
2023/03/28 19:01:10;;;;;;;;;;;;;;;;;;137003;1272;22526;-83
2023/03/28 19:04:11;;;;;;;;;;;;;;;;;;137419;1272;22668;-83
2023/03/28 19:07:12;;;;;;;;;;;;;;;;;;137120;1269;22525;-84
2023/03/28 19:10:13;;;;;;;;;;;;;;;;;;136955;1272;22530;-83
2023/03/28 19:13:14;;;;;;;;;;;;;;;;;;137326;1272;22511;-85
2023/03/28 19:16:17;;;;;;;;;;;;;;;;;;137310;1272;22518;-84
2023/03/28 19:19:18;;;;;;;;;;;;;;;;;;137002;1272;22518;-81
2023/03/28 19:22:22;;;;;;;;;;;;;;;;;;137085;1272;24277;-81
2023/03/28 19:25:23;;;;;;;;;;;;;;;;;;137660;1272;22506;-82
2023/03/28 19:28:25;;;;;;;;;;;;;;;;;;137049;1272;22532;-81
2023/03/28 19:31:26;;;;;;;;;;;;;;;;;;136865;1272;22522;-81
2023/03/28 19:34:27;;;;;;;;;;;;;;;;;;136286;1272;24866;-82
2023/03/28 19:37:29;;;;;;;;;;;;;;;;;;137116;1267;22479;-82
2023/03/28 19:40:30;;;;;;;;;;;;;;;;;;137042;1272;22484;-82
2023/03/28 19:43:31;;;;;;;;;;;;;;;;;;137478;1272;22510;-82
2023/03/28 19:46:32;;;;;;;;;;;;;;;;;;137212;1272;22503;-82
2023/03/28 19:49:33;;;;;;;;;;;;;;;;;;137031;1272;25369;-82
2023/03/28 19:52:35;;;;;;;;;;;;;;;;;;137315;1272;23045;-83
2023/03/28 19:55:36;;;;;;;;;;;;;;;;;;137542;1272;22490;-83
2023/03/28 19:58:37;;;;;;;;;;;;;;;;;;137102;1272;22524;-82
2023/03/28 20:01:38;;;;;;;;;;;;;;;;;;137253;1269;22525;-83
2023/03/28 20:04:39;;;;;;;;;;;;;;;;;;136585;1272;22521;-82
2023/03/28 20:07:40;;;;;;;;;;;;;;;;;;137282;1272;22489;-83
2023/03/28 20:10:42;;;;;;;;;;;;;;;;;;137539;1272;22503;-82
2023/03/28 20:13:43;;;;;;;;;;;;;;;;;;137713;1272;22484;-82
2023/03/28 20:16:44;;;;;;;;;;;;;;;;;;137203;1272;22546;-84
2023/03/28 20:19:45;;;;;;;;;;;;;;;;;;137238;1272;22545;-85
2023/03/28 20:22:46;;;;;;;;;;;;;;;;;;137680;1272;22543;-83
2023/03/28 20:25:47;;;;;;;;;;;;;;;;;;137252;1272;22894;-82
2023/03/28 20:28:48;;;;;;;;;;;;;;;;;;137710;1272;22693;-83
2023/03/28 20:31:52;;;;;;;;;;;;;;;;;;137698;1272;22542;-84
2023/03/28 20:34:53;;;;;;;;;;;;;;;;;;137565;1272;23321;-82
2023/03/28 20:37:54;;;;;;;;;;;;;;;;;;137381;1272;22528;-82
2023/03/28 20:40:55;;;;;;;;;;;;;;;;;;137498;1272;22556;-84
2023/03/28 20:44:01;;;;;;;;;;;;;;;;;;137517;1272;22484;-83
2023/03/28 20:47:02;;;;;;;;;;;;;;;;;;137246;1267;22479;-81
2023/03/28 20:50:07;;;;;;;;;;;;;;;;;;137043;1272;22534;-82
2023/03/28 20:53:08;;;;;;;;;;;;;;;;;;137657;1272;22542;-83
2023/03/28 20:56:10;;;;;;;;;;;;;;;;;;137244;1272;22559;-84
2023/03/28 20:59:11;;;;;;;;;;;;;;;;;;137210;1272;22500;-84